CTSO2: Bird Creek At Catoosa

Data processed at Thu May 23 2019 23:50


All information presented herein is the property of the government of the United States of America and may be revised or deleted at any time without prior notice.
Dissemination of this information without the expressed written consent of the Public Affairs Office, Tulsa District U.S. Army Corps of Engineers is strictly prohibited.
These data are gathered electronically and, as presented, have not undergone any form of quality control. These data are not guaranteed to be valid or correct.
Go to home page.
Go to station list.
Go to home page.

Upstream stations:

Downstream station:
Previous Day
Next Day
Current Day
    
SHEF ID:       CTSO2     Bird Ck at State Highway 266 nea
STATION TYPE:  
Regulating: Stage =    26.00, Flow =    19016

                STAGE  STAGE(2)  RIV-FLOW  WTR-TEMP   DIS-OXY        PH   CONDUCT  BAT-LOAD
                   ft        ft       cfs         F      mg/l        su   umho/cm      volt
              Ccp-Rev   Ccp-Rev   Ccp-Rev   Ccp-Rev   Ccp-Rev   Ccp-Rev   Ccp-Rev   Ccp-Rev
(US/Central)
05/23 00:00     35.73     35.30     30748     63.99      6.08      7.10       106     12.57
05/23 01:00     35.85     35.38     30902     64.04      6.08      7.10       108     12.57
05/23 02:00     35.86     35.43     30915     64.08      6.10      7.11       109     12.57
05/23 03:00     35.86     35.41     30915     64.09      6.10      7.11       110     12.57
05/23 04:00     35.83     35.40     30877     64.13      6.11      7.09       111     12.57
05/23 05:00     35.81     35.40     30851     64.17      6.11      7.10       110     12.49
05/23 06:00     35.76     35.33     30787     64.22      6.11      7.10       111     12.49
05/23 07:00     35.70     35.28     30710     64.33      6.10      7.09       111     12.49
05/23 08:00     35.66     35.18     30658     64.49      6.06      7.10       111     12.49
05/23 09:00     35.58     35.14     30556     64.67      6.04      7.08       111     12.97
05/23 10:00     35.48     35.03     30428     64.92      6.00      7.09       112     13.37
05/23 11:00     35.39     34.98     30313     65.23      5.96      7.10       112     13.53
05/23 12:00     35.29     34.83     30185     65.59      5.92      7.09       113     13.60
05/23 13:00     35.21     34.74     30083     65.95      5.88      7.08       113     13.21
05/23 14:00     35.08     34.64     29917     66.27      5.83      7.08       114     13.13
05/23 15:00     34.96     34.53     29764     66.63      5.80      7.09       115     12.89
05/23 16:00     34.83     34.41     29599     66.97      5.78      7.08       116     12.81
05/23 17:00     34.71     34.24     29447     67.21      5.75      7.09       115     12.81
05/23 18:00     34.57     34.11     29269     67.48      5.73      7.10       114     12.81
05/23 19:00     34.42     34.04     29080     67.68      5.71      7.08       114     12.73
05/23 20:00     34.32     33.87     28953     67.84      5.67      7.08       113     12.65
05/23 21:00     34.18     33.77     28777     67.98      5.65      7.08       112     12.65
05/23 22:00     34.06     33.62     28625     68.14      5.63      7.08       111     12.65
05/23 23:00     33.99     33.56     28537     68.18      5.61      7.08       110     12.65